createdAt,value
2022-11-29T00:19:31.000Z,85.10
2022-11-29T00:29:31.000Z,70.40
2022-11-29T00:39:32.000Z,86.00
2022-11-29T00:49:32.000Z,84.30
2022-11-29T00:59:32.000Z,82.50
2022-11-29T01:09:32.000Z,100.60
2022-11-29T01:09:32.000Z,100.60
2022-11-29T01:19:33.000Z,86.60
2022-11-29T01:29:33.000Z,107.80
2022-11-29T01:49:34.000Z,113.90
2022-11-29T01:59:34.000Z,131.20
2022-11-29T02:09:35.000Z,123.10
2022-11-29T02:19:35.000Z,115.60
2022-11-29T02:29:35.000Z,115.60
2022-11-29T02:39:36.000Z,111.30
2022-11-29T02:49:36.000Z,106.90
2022-11-29T02:59:36.000Z,113.60
2022-11-29T03:19:37.000Z,106.50
2022-11-29T03:29:37.000Z,102.40
2022-11-29T03:39:37.000Z,110.20
2022-11-29T03:49:38.000Z,111.60
2022-11-29T03:59:38.000Z,114.00
2022-11-29T04:09:38.000Z,99.60
2022-11-29T04:19:39.000Z,134.40
2022-11-29T04:29:39.000Z,116.10
2022-11-29T04:49:40.000Z,130.40
2022-11-29T04:59:40.000Z,150.70
2022-11-29T05:09:40.000Z,134.50
2022-11-29T05:19:40.000Z,165.20
2022-11-29T05:29:41.000Z,127.10
2022-11-29T05:39:41.000Z,147.80
2022-11-29T05:49:41.000Z,128.10
2022-11-29T05:59:42.000Z,166.00
2022-11-29T06:19:42.000Z,141.50
2022-11-29T06:29:43.000Z,167.50
2022-11-29T06:39:43.000Z,165.10
2022-11-29T06:49:43.000Z,162.00
2022-11-29T06:59:44.000Z,144.70
2022-11-29T07:09:44.000Z,156.50
2022-11-29T07:19:44.000Z,141.50
2022-11-29T07:29:44.000Z,146.60
2022-11-29T07:49:45.000Z,136.00
2022-11-29T07:59:45.000Z,123.20
2022-11-29T08:09:46.000Z,139.70
2022-11-29T08:19:46.000Z,164.10
2022-11-29T08:29:46.000Z,132.30
2022-11-29T08:39:46.000Z,140.00
2022-11-29T08:49:47.000Z,125.60
2022-11-29T08:59:47.000Z,84.70
2022-11-29T09:19:47.000Z,92.40
2022-11-29T09:29:48.000Z,90.20
2022-11-29T09:39:48.000Z,166.30
2022-11-29T09:49:48.000Z,79.80
2022-11-29T09:59:48.000Z,112.80
2022-11-29T10:09:48.000Z,86.10
2022-11-29T10:19:48.000Z,83.30
2022-11-29T10:29:48.000Z,75.00
2022-11-29T10:49:49.000Z,53.70
2022-11-29T10:59:49.000Z,56.10
2022-11-29T11:09:49.000Z,49.70
2022-11-29T11:19:49.000Z,127.50
2022-11-29T11:29:49.000Z,65.70
2022-11-29T11:39:49.000Z,61.30
2022-11-29T11:49:49.000Z,55.20
2022-11-29T11:49:49.000Z,55.20
2022-11-29T11:59:49.000Z,55.80
2022-11-29T12:19:49.000Z,52.70
2022-11-29T12:29:49.000Z,47.00
2022-11-29T12:39:49.000Z,52.20
2022-11-29T12:49:50.000Z,49.50
2022-11-29T12:59:50.000Z,47.40
2022-11-29T13:09:50.000Z,45.10
2022-11-29T13:19:50.000Z,54.70
2022-11-29T13:29:50.000Z,84.10
2022-11-29T13:49:50.000Z,62.80
2022-11-29T13:59:50.000Z,71.80
2022-11-29T14:09:50.000Z,60.70
2022-11-29T14:35:08.000Z,49.00
2022-11-29T14:35:08.000Z,51.00
2022-11-29T14:45:07.000Z,45.50
2022-11-29T14:55:07.000Z,46.80
2022-11-29T15:05:06.000Z,53.60
2022-11-29T15:15:06.000Z,46.90
2022-11-29T15:25:06.000Z,45.90
2022-11-29T15:35:05.000Z,43.30
2022-11-29T15:45:05.000Z,42.90
2022-11-29T16:05:04.000Z,39.40
2022-11-29T16:15:04.000Z,39.60
2022-11-29T16:25:04.000Z,44.40
2022-11-29T16:35:03.000Z,48.00
2022-11-29T16:45:03.000Z,46.30
2022-11-29T16:55:03.000Z,78.20
2022-11-29T17:05:02.000Z,50.00
2022-11-29T17:15:02.000Z,58.50
2022-11-29T17:35:01.000Z,63.90
2022-11-29T17:45:01.000Z,67.00
2022-11-29T17:55:01.000Z,63.10
2022-11-29T18:05:00.000Z,71.60
2022-11-29T18:15:00.000Z,73.60
2022-11-29T18:15:00.000Z,73.60
2022-11-29T18:25:00.000Z,49.20
2022-11-29T18:34:59.000Z,55.30
2022-11-29T18:44:59.000Z,64.60
2022-11-29T19:04:58.000Z,60.30
2022-11-29T19:14:58.000Z,71.80
2022-11-29T19:24:58.000Z,51.70
2022-11-29T19:34:58.000Z,53.00
2022-11-29T19:34:58.000Z,53.00
2022-11-29T19:44:57.000Z,60.30
2022-11-29T19:54:57.000Z,55.60
2022-11-29T20:04:57.000Z,88.90
2022-11-29T20:14:56.000Z,96.20
2022-11-29T20:34:56.000Z,105.90
2022-11-29T20:44:55.000Z,122.10
2022-11-29T20:54:55.000Z,108.80
2022-11-29T21:04:55.000Z,116.00
2022-11-29T21:14:55.000Z,72.20
2022-11-29T21:24:54.000Z,101.80
2022-11-29T21:34:54.000Z,78.60
2022-11-29T21:44:54.000Z,95.20
2022-11-29T22:04:53.000Z,146.30
2022-11-29T22:14:53.000Z,86.70
2022-11-29T22:24:52.000Z,61.50
2022-11-29T22:34:52.000Z,57.30
2022-11-29T22:44:52.000Z,55.70
2022-11-29T22:54:51.000Z,46.10
2022-11-29T23:04:51.000Z,61.00
2022-11-29T23:14:50.000Z,188.90
2022-11-29T23:34:50.000Z,49.10
2022-11-29T23:44:49.000Z,58.90
2022-11-29T23:54:49.000Z,54.80
